Time;durP1;ratioP1;P1;durP2;ratioP2;P2;SDS_P1;SDS_P2;PMS_P1;PMS_P2;Temp;Humidity;BMP_temperature;BMP_pressure;BME280_temperature;BME280_humidity;BME280_pressure;Samples;Min_cycle;Max_cycle;Signal;HPM_P1;HPM_P2
2023/08/20 00:02:02;;;;;;;19.40;16.60;;;;;;;-128.00;-1.00;-1.00;18481;288;7504411;-36
2023/08/20 00:04:27;;;;;;;12.80;11.60;;;;;;;-128.00;-1.00;-1.00;18466;339;7504811;-32
2023/08/20 00:06:54;;;;;;;16.30;14.70;;;;;;;-128.00;-1.00;-1.00;18483;288;7505984;-35
2023/08/20 00:09:19;;;;;;;16.10;13.90;;;;;;;-128.00;-1.00;-1.00;18492;295;7504501;-33
2023/08/20 00:11:46;;;;;;;15.40;13.70;;;;;;;-128.00;-1.00;-1.00;18867;295;7504774;-35
2023/08/20 00:14:15;;;;;;;13.90;12.40;;;;;;;-128.00;-1.00;-1.00;18465;295;7504740;-32
2023/08/20 00:16:42;;;;;;;10.60;9.60;;;;;;;-128.00;-1.00;-1.00;18507;295;7505854;-32
2023/08/20 00:19:08;;;;;;;13.10;11.80;;;;;;;-128.00;-1.00;-1.00;18466;295;7506205;-32
2023/08/20 00:21:34;;;;;;;11.80;10.60;;;;;;;-128.00;-1.00;-1.00;18458;347;7506226;-36
2023/08/20 00:24:00;;;;;;;18.90;13.60;;;;;;;-128.00;-1.00;-1.00;18493;288;7505568;-36
2023/08/20 00:26:26;;;;;;;19.30;14.60;;;;;;;-128.00;-1.00;-1.00;18475;295;7505695;-36
2023/08/20 00:28:52;;;;;;;18.70;15.80;;;;;;;-128.00;-1.00;-1.00;18466;295;7505722;-32
2023/08/20 00:31:18;;;;;;;20.60;18.20;;;;;;;-128.00;-1.00;-1.00;18886;288;7504393;-32
2023/08/20 00:33:44;;;;;;;22.60;18.80;;;;;;;-128.00;-1.00;-1.00;18878;295;7504164;-36
2023/08/20 00:36:10;;;;;;;24.80;17.30;;;;;;;-128.00;-1.00;-1.00;18873;295;7504480;-35
2023/08/20 01:18:14;;;;;;;20.50;17.20;;;;;;;-98.74;19.20;19937.57;19544;321;8045905;-36
2023/08/20 01:20:45;;;;;;;25.30;19.00;;;;;;;-128.00;-1.00;-1.00;18442;298;7505179;-36
2023/08/20 01:23:31;;;;;;;19.10;17.00;;;;;;;-128.00;-1.00;-1.00;18471;298;7506130;-36
2023/08/20 01:26:11;;;;;;;15.80;14.20;;;;;;;-128.00;-1.00;-1.00;18439;299;7504655;-33
2023/08/20 01:28:38;;;;;;;16.90;15.20;;;;;;;-128.00;-1.00;-1.00;18447;299;7506250;-32
2023/08/20 01:31:04;;;;;;;19.90;16.50;;;;;;;-128.00;-1.00;-1.00;18461;298;7504636;-33
2023/08/20 01:33:30;;;;;;;25.10;16.90;;;;;;;-128.00;-1.00;-1.00;18463;301;7505571;-37
2023/08/20 01:35:56;;;;;;;19.30;16.80;;;;;;;-128.00;-1.00;-1.00;18458;286;7504698;-37
2023/08/20 01:38:22;;;;;;;18.00;15.60;;;;;;;-128.00;-1.00;-1.00;18845;299;7505428;-33
2023/08/20 01:40:49;;;;;;;25.50;18.60;;;;;;;-128.00;-1.00;-1.00;18856;298;7505279;-37
2023/08/20 01:43:15;;;;;;;18.70;16.30;;;;;;;-128.00;-1.00;-1.00;18853;298;7505329;-33
2023/08/20 01:45:41;;;;;;;19.20;16.70;;;;;;;-128.00;-1.00;-1.00;18833;287;7505327;-34
2023/08/20 01:48:08;;;;;;;21.00;17.60;;;;;;;-128.00;-1.00;-1.00;18839;299;7505425;-33
2023/08/20 01:50:34;;;;;;;25.60;17.30;;;;;;;-128.00;-1.00;-1.00;18833;314;7504831;-33
2023/08/20 01:53:00;;;;;;;19.00;17.00;;;;;;;-128.00;-1.00;-1.00;18446;298;7504933;-33
2023/08/20 01:55:26;;;;;;;24.10;19.50;;;;;;;-128.00;-1.00;-1.00;18473;350;7505159;-33
2023/08/20 01:57:52;;;;;;;19.00;17.10;;;;;;;-128.00;-1.00;-1.00;18452;314;7505837;-37
2023/08/20 02:00:18;;;;;;;22.30;18.70;;;;;;;-128.00;-1.00;-1.00;18863;298;7504792;-37
2023/08/20 02:02:44;;;;;;;19.00;16.80;;;;;;;-128.00;-1.00;-1.00;18466;322;7505209;-37
2023/08/20 02:05:10;;;;;;;25.60;20.90;;;;;;;-128.00;-1.00;-1.00;18868;306;7504789;-33
2023/08/20 02:07:36;;;;;;;29.00;24.80;;;;;;;-128.00;-1.00;-1.00;18885;298;7505409;-33
2023/08/20 02:10:03;;;;;;;29.90;22.70;;;;;;;-128.00;-1.00;-1.00;18842;298;7505816;-36
2023/08/20 02:12:29;;;;;;;23.70;20.60;;;;;;;-128.00;-1.00;-1.00;18432;299;7505791;-37
2023/08/20 02:14:55;;;;;;;26.70;23.30;;;;;;;-128.00;-1.00;-1.00;18853;342;7504879;-37
2023/08/20 02:17:21;;;;;;;28.60;23.80;;;;;;;-128.00;-1.00;-1.00;18876;298;7504599;-36
2023/08/20 02:19:48;;;;;;;26.80;22.10;;;;;;;-128.00;-1.00;-1.00;18455;298;7504818;-32
2023/08/20 02:22:14;;;;;;;24.90;21.80;;;;;;;-128.00;-1.00;-1.00;18462;299;7504972;-36
2023/08/20 02:24:40;;;;;;;27.00;22.90;;;;;;;-128.00;-1.00;-1.00;18868;298;7505491;-32
2023/08/20 02:27:06;;;;;;;27.40;22.80;;;;;;;-128.00;-1.00;-1.00;18864;298;7504340;-36
2023/08/20 02:29:32;;;;;;;24.70;21.20;;;;;;;-128.00;-1.00;-1.00;18864;298;7504776;-36
2023/08/20 02:31:58;;;;;;;22.20;18.90;;;;;;;-128.00;-1.00;-1.00;18844;298;7504984;-32
2023/08/20 02:34:25;;;;;;;17.40;15.70;;;;;;;-128.00;-1.00;-1.00;18468;339;7504490;-32
2023/08/20 02:36:51;;;;;;;27.50;22.80;;;;;;;-128.00;-1.00;-1.00;18872;299;7505350;-32
2023/08/20 02:39:17;;;;;;;31.60;21.20;;;;;;;-128.00;-1.00;-1.00;18860;322;7504483;-32
2023/08/20 02:41:43;;;;;;;26.60;21.80;;;;;;;-128.00;-1.00;-1.00;18858;310;7505851;-33
2023/08/20 02:44:09;;;;;;;32.30;21.70;;;;;;;-128.00;-1.00;-1.00;18855;299;7504584;-32
2023/08/20 02:46:38;;;;;;;23.70;21.10;;;;;;;-128.00;-1.00;-1.00;18858;298;7504664;-35
2023/08/20 02:49:04;;;;;;;15.30;13.80;;;;;;;-128.00;-1.00;-1.00;18484;298;7505827;-32
2023/08/20 02:51:29;;;;;;;16.90;13.50;;;;;;;-128.00;-1.00;-1.00;18479;298;7505485;-36
2023/08/20 02:53:55;;;;;;;17.50;15.60;;;;;;;-128.00;-1.00;-1.00;18860;298;7504427;-33
2023/08/20 02:56:21;;;;;;;19.20;17.20;;;;;;;-128.00;-1.00;-1.00;18875;298;7505155;-33
2023/08/20 02:58:48;;;;;;;27.60;22.60;;;;;;;-128.00;-1.00;-1.00;18879;298;7504760;-35
2023/08/20 03:01:19;;;;;;;25.30;22.50;;;;;;;-128.00;-1.00;-1.00;18841;350;7504437;-32
2023/08/20 03:03:44;;;;;;;22.90;20.50;;;;;;;-128.00;-1.00;-1.00;18457;299;7505770;-36
2023/08/20 03:06:10;;;;;;;27.90;21.00;;;;;;;-128.00;-1.00;-1.00;18471;298;7506075;-32
2023/08/20 03:08:36;;;;;;;23.30;19.40;;;;;;;-128.00;-1.00;-1.00;18417;300;7505254;-36
2023/08/20 03:11:02;;;;;;;14.20;12.70;;;;;;;-128.00;-1.00;-1.00;18454;299;7504380;-36
2023/08/20 03:13:27;;;;;;;16.30;14.20;;;;;;;-128.00;-1.00;-1.00;18459;299;7506737;-36
2023/08/20 03:15:53;;;;;;;17.30;14.20;;;;;;;-128.00;-1.00;-1.00;18465;299;7504295;-33
2023/08/20 03:18:19;;;;;;;13.70;12.20;;;;;;;-128.00;-1.00;-1.00;18465;299;7504934;-32
2023/08/20 03:20:44;;;;;;;16.00;11.60;;;;;;;-128.00;-1.00;-1.00;18460;299;7504485;-33
2023/08/20 03:23:11;;;;;;;19.30;17.30;;;;;;;-128.00;-1.00;-1.00;18834;299;7504899;-36
2023/08/20 03:25:38;;;;;;;20.70;18.20;;;;;;;-128.00;-1.00;-1.00;18896;298;7504664;-37
2023/08/20 03:28:04;;;;;;;14.40;12.30;;;;;;;-128.00;-1.00;-1.00;18467;298;7504772;-36
2023/08/20 03:30:29;;;;;;;13.10;11.70;;;;;;;-128.00;-1.00;-1.00;18463;298;7505204;-34
2023/08/20 03:32:55;;;;;;;21.00;18.70;;;;;;;-128.00;-1.00;-1.00;18469;298;7505129;-36
2023/08/20 03:35:21;;;;;;;23.90;20.30;;;;;;;-128.00;-1.00;-1.00;18462;298;7504498;-32
2023/08/20 03:37:47;;;;;;;26.50;18.20;;;;;;;-128.00;-1.00;-1.00;18434;299;7505787;-36
2023/08/20 03:40:13;;;;;;;22.40;19.40;;;;;;;-128.00;-1.00;-1.00;18853;299;7505461;-36
2023/08/20 03:42:39;;;;;;;21.40;17.50;;;;;;;-128.00;-1.00;-1.00;18844;310;7504559;-36
2023/08/20 03:45:06;;;;;;;23.40;20.80;;;;;;;-128.00;-1.00;-1.00;18818;300;7504151;-36
2023/08/20 03:47:32;;;;;;;20.90;18.00;;;;;;;-128.00;-1.00;-1.00;18464;298;7504191;-32
2023/08/20 03:49:58;;;;;;;21.90;19.50;;;;;;;-128.00;-1.00;-1.00;18854;298;7505172;-37
2023/08/20 03:52:24;;;;;;;24.00;19.80;;;;;;;-128.00;-1.00;-1.00;18850;298;7504532;-35
2023/08/20 03:54:51;;;;;;;27.00;22.40;;;;;;;-128.00;-1.00;-1.00;18871;298;7504571;-38
2023/08/20 03:57:17;;;;;;;30.90;23.80;;;;;;;-128.00;-1.00;-1.00;18866;298;7504504;-39
2023/08/20 03:59:45;;;;;;;30.30;23.90;;;;;;;-128.00;-1.00;-1.00;18865;306;7504708;-33
2023/08/20 04:02:11;;;;;;;26.90;20.80;;;;;;;-128.00;-1.00;-1.00;18441;299;7504692;-36
2023/08/20 04:04:37;;;;;;;23.70;19.60;;;;;;;-128.00;-1.00;-1.00;18467;299;7504537;-36
2023/08/20 04:07:03;;;;;;;23.20;19.80;;;;;;;-128.00;-1.00;-1.00;18440;298;7506787;-32
2023/08/20 04:09:29;;;;;;;21.70;18.20;;;;;;;-128.00;-1.00;-1.00;18442;299;7504644;-36
2023/08/20 04:11:54;;;;;;;16.00;13.90;;;;;;;-128.00;-1.00;-1.00;18471;298;7506599;-32
2023/08/20 04:14:20;;;;;;;17.00;13.40;;;;;;;-128.00;-1.00;-1.00;18439;299;7505925;-38
2023/08/20 04:16:46;;;;;;;20.10;18.00;;;;;;;-128.00;-1.00;-1.00;18443;350;7506260;-31
2023/08/20 04:19:11;;;;;;;19.20;17.20;;;;;;;-128.00;-1.00;-1.00;18420;310;7506043;-35
2023/08/20 04:21:37;;;;;;;17.40;14.20;;;;;;;-128.00;-1.00;-1.00;18449;299;7504435;-32
2023/08/20 04:24:04;;;;;;;23.40;20.80;;;;;;;-128.00;-1.00;-1.00;18849;299;7505072;-31
2023/08/20 04:26:29;;;;;;;24.00;18.30;;;;;;;-128.00;-1.00;-1.00;18440;299;7504277;-31
2023/08/20 04:28:55;;;;;;;22.00;17.90;;;;;;;-128.00;-1.00;-1.00;18419;326;7504931;-32
2023/08/20 04:31:21;;;;;;;25.90;19.50;;;;;;;-128.00;-1.00;-1.00;18444;290;7505941;-31
2023/08/20 04:33:47;;;;;;;23.20;20.30;;;;;;;-128.00;-1.00;-1.00;18832;298;7505171;-35
2023/08/20 04:36:14;;;;;;;29.00;21.40;;;;;;;-128.00;-1.00;-1.00;18464;298;7504710;-36
2023/08/20 04:38:40;;;;;;;29.30;24.50;;;;;;;-128.00;-1.00;-1.00;18866;298;7506544;-32
2023/08/20 04:41:06;;;;;;;32.50;25.00;;;;;;;-128.00;-1.00;-1.00;18856;298;7504015;-35
2023/08/20 04:43:32;;;;;;;38.50;23.30;;;;;;;-128.00;-1.00;-1.00;18811;352;7505314;-32
2023/08/20 04:45:58;;;;;;;24.90;21.60;;;;;;;-128.00;-1.00;-1.00;18862;343;7504814;-36
2023/08/20 04:48:24;;;;;;;24.80;20.90;;;;;;;-128.00;-1.00;-1.00;18847;298;7504466;-35
2023/08/20 04:50:51;;;;;;;26.80;22.30;;;;;;;-128.00;-1.00;-1.00;18862;298;7505439;-32
2023/08/20 04:53:17;;;;;;;26.20;21.90;;;;;;;-128.00;-1.00;-1.00;18859;298;7504334;-36
2023/08/20 04:55:43;;;;;;;24.80;21.80;;;;;;;-128.00;-1.00;-1.00;18839;306;7505309;-32
2023/08/20 04:58:10;;;;;;;27.10;21.40;;;;;;;-128.00;-1.00;-1.00;18854;298;7505251;-35
2023/08/20 05:00:36;;;;;;;26.30;19.70;;;;;;;-128.00;-1.00;-1.00;18853;298;7504787;-35
2023/08/20 05:03:02;;;;;;;22.30;20.00;;;;;;;-128.00;-1.00;-1.00;18835;339;7505203;-36
2023/08/20 05:05:28;;;;;;;25.40;20.90;;;;;;;-128.00;-1.00;-1.00;18839;299;7504949;-36
2023/08/20 05:07:54;;;;;;;24.20;19.30;;;;;;;-128.00;-1.00;-1.00;18880;298;7505707;-33
2023/08/20 05:10:20;;;;;;;20.20;18.10;;;;;;;-128.00;-1.00;-1.00;18856;298;7504394;-36
2023/08/20 05:12:47;;;;;;;24.40;19.10;;;;;;;-128.00;-1.00;-1.00;18844;339;7504571;-36
2023/08/20 05:15:13;;;;;;;20.00;17.90;;;;;;;-128.00;-1.00;-1.00;18848;299;7504769;-35
2023/08/20 05:17:39;;;;;;;23.00;18.10;;;;;;;-128.00;-1.00;-1.00;18855;298;7504478;-33
2023/08/20 05:20:06;;;;;;;21.90;19.50;;;;;;;-128.00;-1.00;-1.00;18857;298;7505101;-36
2023/08/20 05:22:32;;;;;;;17.60;15.80;;;;;;;-128.00;-1.00;-1.00;18433;298;7506103;-34
2023/08/20 05:24:58;;;;;;;22.70;19.60;;;;;;;-128.00;-1.00;-1.00;18853;298;7505100;-34
2023/08/20 05:27:24;;;;;;;20.90;18.80;;;;;;;-128.00;-1.00;-1.00;18840;339;7504406;-35
2023/08/20 05:29:50;;;;;;;22.10;19.80;;;;;;;-128.00;-1.00;-1.00;18856;350;7504426;-34
2023/08/20 05:32:16;;;;;;;24.70;18.60;;;;;;;-128.00;-1.00;-1.00;18885;306;7504740;-35
2023/08/20 05:34:43;;;;;;;21.50;19.00;;;;;;;-128.00;-1.00;-1.00;18838;339;7505476;-31
2023/08/20 05:37:09;;;;;;;19.40;17.50;;;;;;;-128.00;-1.00;-1.00;18440;298;7504897;-32
2023/08/20 05:39:41;;;;;;;20.60;16.00;;;;;;;-128.00;-1.00;-1.00;18449;298;7505564;-32
2023/08/20 05:42:07;;;;;;;19.10;17.30;;;;;;;-128.00;-1.00;-1.00;18436;298;7504820;-32
2023/08/20 05:44:33;;;;;;;19.70;17.70;;;;;;;-128.00;-1.00;-1.00;18447;298;7504618;-35
2023/08/20 05:46:58;;;;;;;16.30;14.70;;;;;;;-128.00;-1.00;-1.00;18429;298;7504376;-35
2023/08/20 05:49:24;;;;;;;24.80;17.20;;;;;;;-128.00;-1.00;-1.00;18425;298;7505821;-31
2023/08/20 05:51:50;;;;;;;20.90;18.70;;;;;;;-128.00;-1.00;-1.00;18858;339;7505011;-35
2023/08/20 05:54:17;;;;;;;21.00;18.90;;;;;;;-128.00;-1.00;-1.00;18877;298;7504966;-35
2023/08/20 05:56:43;;;;;;;21.00;18.90;;;;;;;-128.00;-1.00;-1.00;18868;298;7504898;-32
2023/08/20 05:59:09;;;;;;;20.30;18.40;;;;;;;-128.00;-1.00;-1.00;18860;350;7505346;-35
2023/08/20 06:01:35;;;;;;;19.20;17.20;;;;;;;-128.00;-1.00;-1.00;18869;339;7504843;-31
2023/08/20 06:04:02;;;;;;;22.40;19.60;;;;;;;-128.00;-1.00;-1.00;18870;298;7504358;-32
2023/08/20 06:06:27;;;;;;;20.50;18.30;;;;;;;-128.00;-1.00;-1.00;18487;314;7506074;-33
2023/08/20 06:08:53;;;;;;;18.40;16.50;;;;;;;-128.00;-1.00;-1.00;18478;298;7506301;-33
2023/08/20 06:11:20;;;;;;;19.20;17.00;;;;;;;-128.00;-1.00;-1.00;18864;298;7504451;-32
2023/08/20 06:13:45;;;;;;;18.20;16.40;;;;;;;-128.00;-1.00;-1.00;18444;322;7506018;-33
2023/08/20 06:16:11;;;;;;;20.80;17.00;;;;;;;-128.00;-1.00;-1.00;18459;298;7504795;-33
2023/08/20 06:18:37;;;;;;;22.10;16.80;;;;;;;-128.00;-1.00;-1.00;18473;310;7506048;-36
2023/08/20 06:21:03;;;;;;;19.60;17.00;;;;;;;-128.00;-1.00;-1.00;18878;339;7504612;-36
2023/08/20 06:23:29;;;;;;;18.10;16.20;;;;;;;-128.00;-1.00;-1.00;18458;298;7505782;-36
2023/08/20 06:25:55;;;;;;;16.40;14.20;;;;;;;-128.00;-1.00;-1.00;18457;339;7504428;-33
2023/08/20 06:28:21;;;;;;;17.60;15.80;;;;;;;-128.00;-1.00;-1.00;18479;298;7506159;-32
2023/08/20 06:30:47;;;;;;;20.70;15.40;;;;;;;-128.00;-1.00;-1.00;18467;298;7505702;-32
2023/08/20 06:33:12;;;;;;;16.00;14.50;;;;;;;-128.00;-1.00;-1.00;18493;299;7504607;-32
2023/08/20 06:35:38;;;;;;;17.80;16.00;;;;;;;-128.00;-1.00;-1.00;18465;298;7506234;-36
2023/08/20 06:38:05;;;;;;;23.50;17.40;;;;;;;-128.00;-1.00;-1.00;18450;310;7504742;-33
2023/08/20 06:40:30;;;;;;;16.70;13.60;;;;;;;-128.00;-1.00;-1.00;18471;299;7504287;-32
2023/08/20 06:42:56;;;;;;;14.10;12.80;;;;;;;-128.00;-1.00;-1.00;18493;298;7505063;-33
2023/08/20 06:45:22;;;;;;;15.70;14.20;;;;;;;-128.00;-1.00;-1.00;18474;298;7504495;-36
2023/08/20 06:47:47;;;;;;;15.30;14.00;;;;;;;-128.00;-1.00;-1.00;18493;299;7506115;-36
2023/08/20 06:50:13;;;;;;;17.30;15.60;;;;;;;-128.00;-1.00;-1.00;18858;298;7504378;-33
2023/08/20 06:52:40;;;;;;;16.50;14.90;;;;;;;-128.00;-1.00;-1.00;18848;314;7504685;-33
2023/08/20 06:55:06;;;;;;;17.80;15.50;;;;;;;-128.00;-1.00;-1.00;18866;298;7504986;-32
2023/08/20 06:57:32;;;;;;;22.40;15.00;;;;;;;-128.00;-1.00;-1.00;18462;310;7504307;-36
2023/08/20 06:59:58;;;;;;;13.60;12.40;;;;;;;-128.00;-1.00;-1.00;18450;298;7504776;-32
2023/08/20 07:02:24;;;;;;;23.50;13.40;;;;;;;-128.00;-1.00;-1.00;18474;298;7505865;-33
2023/08/20 07:04:50;;;;;;;18.20;14.40;;;;;;;-128.00;-1.00;-1.00;18881;298;7504221;-32
2023/08/20 07:07:16;;;;;;;14.10;12.80;;;;;;;-128.00;-1.00;-1.00;18864;322;7504572;-32
2023/08/20 07:09:42;;;;;;;13.40;12.10;;;;;;;-128.00;-1.00;-1.00;18874;299;7504512;-32
2023/08/20 07:12:08;;;;;;;12.20;11.10;;;;;;;-128.00;-1.00;-1.00;18856;322;7504733;-32
2023/08/20 07:14:35;;;;;;;18.40;13.00;;;;;;;-128.00;-1.00;-1.00;18837;298;7504648;-32
2023/08/20 07:17:02;;;;;;;11.20;10.30;;;;;;;-128.00;-1.00;-1.00;18859;326;7505021;-36
2023/08/20 07:19:29;;;;;;;11.30;9.90;;;;;;;-128.00;-1.00;-1.00;18444;298;7504356;-33
2023/08/20 07:21:55;;;;;;;11.50;9.90;;;;;;;-128.00;-1.00;-1.00;18489;298;7506405;-33
2023/08/20 07:24:25;;;;;;;10.10;9.30;;;;;;;-128.00;-1.00;-1.00;18468;299;7504562;-33
2023/08/20 07:26:51;;;;;;;10.40;9.40;;;;;;;-128.00;-1.00;-1.00;18447;298;7504991;-36
2023/08/20 07:29:16;;;;;;;16.80;8.20;;;;;;;-128.00;-1.00;-1.00;18430;298;7506233;-36
2023/08/20 07:31:42;;;;;;;10.40;9.40;;;;;;;-128.00;-1.00;-1.00;18464;298;7504259;-32
2023/08/20 07:34:07;;;;;;;20.50;8.40;;;;;;;-128.00;-1.00;-1.00;18468;298;7504422;-32
2023/08/20 07:36:33;;;;;;;9.30;8.60;;;;;;;-128.00;-1.00;-1.00;18471;298;7504324;-36
2023/08/20 07:39:00;;;;;;;9.10;8.30;;;;;;;-128.00;-1.00;-1.00;18456;298;7505034;-36
2023/08/20 07:41:25;;;;;;;11.20;9.50;;;;;;;-128.00;-1.00;-1.00;18439;299;7505828;-32
2023/08/20 07:43:51;;;;;;;10.00;9.10;;;;;;;-128.00;-1.00;-1.00;18446;299;7504869;-36
2023/08/20 07:46:16;;;;;;;8.80;8.00;;;;;;;-128.00;-1.00;-1.00;18486;298;7504504;-35
2023/08/20 07:48:43;;;;;;;8.60;7.80;;;;;;;-128.00;-1.00;-1.00;18434;299;7504694;-32
2023/08/20 07:51:08;;;;;;;10.20;9.00;;;;;;;-128.00;-1.00;-1.00;18449;298;7506443;-35
2023/08/20 07:53:34;;;;;;;10.60;9.60;;;;;;;-128.00;-1.00;-1.00;18451;298;7504777;-36
2023/08/20 07:56:00;;;;;;;10.40;9.50;;;;;;;-128.00;-1.00;-1.00;18444;298;7504673;-36
2023/08/20 07:58:27;;;;;;;7.50;6.90;;;;;;;-128.00;-1.00;-1.00;18478;299;7504428;-32
2023/08/20 08:00:52;;;;;;;7.20;6.70;;;;;;;-128.00;-1.00;-1.00;18450;298;7505282;-32
2023/08/20 08:03:18;;;;;;;8.90;8.20;;;;;;;-128.00;-1.00;-1.00;18422;299;7506016;-32
2023/08/20 08:05:48;;;;;;;26.90;13.90;;;;;;;-128.00;-1.00;-1.00;18464;298;7506014;-36
2023/08/20 08:08:14;;;;;;;30.10;14.70;;;;;;;-128.00;-1.00;-1.00;18491;298;7504701;-36
2023/08/20 08:10:40;;;;;;;39.10;19.40;;;;;;;-128.00;-1.00;-1.00;18462;298;7505743;-32
2023/08/20 08:13:06;;;;;;;8.20;7.50;;;;;;;-128.00;-1.00;-1.00;18453;298;7504434;-32
2023/08/20 08:15:31;;;;;;;9.90;8.00;;;;;;;-128.00;-1.00;-1.00;18451;317;7504610;-32
2023/08/20 08:17:58;;;;;;;11.40;8.80;;;;;;;-128.00;-1.00;-1.00;18849;290;7504911;-35
2023/08/20 08:20:24;;;;;;;6.30;5.10;;;;;;;-128.00;-1.00;-1.00;18857;298;7505827;-33
2023/08/20 08:22:50;;;;;;;6.30;5.70;;;;;;;-128.00;-1.00;-1.00;18845;298;7504713;-36
2023/08/20 08:25:16;;;;;;;4.30;3.90;;;;;;;-128.00;-1.00;-1.00;18851;322;7504637;-32
2023/08/20 08:27:42;;;;;;;4.90;4.20;;;;;;;-128.00;-1.00;-1.00;18854;299;7504324;-36
2023/08/20 08:30:09;;;;;;;5.60;5.10;;;;;;;-128.00;-1.00;-1.00;18870;298;7505045;-36
2023/08/20 08:32:35;;;;;;;10.10;8.70;;;;;;;-128.00;-1.00;-1.00;18457;298;7504574;-36
2023/08/20 08:35:01;;;;;;;8.70;6.80;;;;;;;-128.00;-1.00;-1.00;18484;298;7504294;-36
2023/08/20 08:37:26;;;;;;;5.20;4.20;;;;;;;-128.00;-1.00;-1.00;18451;298;7506358;-33
2023/08/20 08:39:52;;;;;;;4.10;3.70;;;;;;;-128.00;-1.00;-1.00;18437;299;7506123;-32
2023/08/20 08:42:18;;;;;;;4.60;4.20;;;;;;;-128.00;-1.00;-1.00;18460;298;7504751;-36
2023/08/20 08:44:43;;;;;;;6.70;3.80;;;;;;;-128.00;-1.00;-1.00;18460;298;7504700;-32
2023/08/20 08:47:09;;;;;;;3.30;3.10;;;;;;;-128.00;-1.00;-1.00;18448;298;7506291;-32
2023/08/20 08:49:35;;;;;;;4.30;3.90;;;;;;;-128.00;-1.00;-1.00;18435;298;7505074;-36
2023/08/20 08:52:01;;;;;;;4.80;4.40;;;;;;;-128.00;-1.00;-1.00;18440;350;7505051;-33
2023/08/20 08:54:27;;;;;;;4.10;3.80;;;;;;;-128.00;-1.00;-1.00;18428;352;7505019;-32
2023/08/20 08:56:53;;;;;;;3.70;2.80;;;;;;;-128.00;-1.00;-1.00;18451;298;7505299;-32
2023/08/20 08:59:19;;;;;;;4.10;3.30;;;;;;;-128.00;-1.00;-1.00;18874;298;7504311;-33
2023/08/20 09:01:46;;;;;;;4.80;4.40;;;;;;;-128.00;-1.00;-1.00;18873;298;7504416;-33
2023/08/20 09:04:12;;;;;;;4.00;3.70;;;;;;;-128.00;-1.00;-1.00;18866;306;7504255;-36
2023/08/20 09:06:51;;;;;;;4.70;3.90;;;;;;;-128.00;-1.00;-1.00;18859;299;7504679;-36
2023/08/20 09:09:17;;;;;;;6.10;5.10;;;;;;;-128.00;-1.00;-1.00;18451;298;7505837;-36
2023/08/20 09:11:43;;;;;;;5.20;4.90;;;;;;;-128.00;-1.00;-1.00;18435;298;7506010;-36
2023/08/20 09:14:21;;;;;;;3.50;3.20;;;;;;;-128.00;-1.00;-1.00;18427;298;7506277;-35
2023/08/20 09:16:47;;;;;;;4.90;4.40;;;;;;;-128.00;-1.00;-1.00;18480;339;7504440;-32
2023/08/20 09:19:12;;;;;;;4.60;3.80;;;;;;;-128.00;-1.00;-1.00;18435;298;7504427;-35
2023/08/20 09:21:39;;;;;;;13.30;7.70;;;;;;;-128.00;-1.00;-1.00;18843;322;8244621;-32
2023/08/20 09:24:06;;;;;;;10.10;7.40;;;;;;;-128.00;-1.00;-1.00;18845;298;7504717;-34
2023/08/20 09:26:32;;;;;;;6.10;5.50;;;;;;;-128.00;-1.00;-1.00;18432;298;7505069;-33
2023/08/20 09:28:57;;;;;;;5.50;5.10;;;;;;;-128.00;-1.00;-1.00;18436;299;7504898;-36
2023/08/20 09:31:39;;;;;;;3.80;3.50;;;;;;;-128.00;-1.00;-1.00;18446;298;7504884;-36
2023/08/20 09:34:05;;;;;;;7.80;5.10;;;;;;;-128.00;-1.00;-1.00;18456;298;7504678;-36
2023/08/20 09:36:34;;;;;;;5.90;4.60;;;;;;;-128.00;-1.00;-1.00;18460;298;7504795;-32
2023/08/20 09:39:01;;;;;;;3.70;3.50;;;;;;;-128.00;-1.00;-1.00;18439;288;7504573;-36
2023/08/20 09:41:27;;;;;;;4.90;4.60;;;;;;;-128.00;-1.00;-1.00;18480;299;7506960;-36
2023/08/20 09:43:56;;;;;;;5.10;4.70;;;;;;;-128.00;-1.00;-1.00;18846;302;7505024;-36
2023/08/20 09:46:22;;;;;;;4.80;4.50;;;;;;;-128.00;-1.00;-1.00;18472;298;7505071;-36
2023/08/20 09:48:47;;;;;;;4.10;3.70;;;;;;;-128.00;-1.00;-1.00;18464;299;7504790;-36
2023/08/20 09:51:14;;;;;;;5.90;5.40;;;;;;;-128.00;-1.00;-1.00;18872;318;7504249;-36
2023/08/20 09:53:46;;;;;;;5.30;3.90;;;;;;;-128.00;-1.00;-1.00;18866;298;7504816;-33
2023/08/20 09:56:20;;;;;;;3.90;3.60;;;;;;;-128.00;-1.00;-1.00;18473;299;7504856;-33
2023/08/20 09:58:46;;;;;;;5.00;4.50;;;;;;;-128.00;-1.00;-1.00;18461;299;7506044;-36
2023/08/20 10:01:12;;;;;;;6.20;4.10;;;;;;;-128.00;-1.00;-1.00;18444;299;7504714;-32
2023/08/20 10:03:38;;;;;;;4.70;4.20;;;;;;;-128.00;-1.00;-1.00;18471;298;7505882;-35
2023/08/20 10:06:04;;;;;;;4.40;4.00;;;;;;;-128.00;-1.00;-1.00;18469;298;7505997;-35
2023/08/20 10:08:30;;;;;;;4.50;4.10;;;;;;;-128.00;-1.00;-1.00;18459;298;7504539;-32
2023/08/20 10:10:55;;;;;;;3.20;3.00;;;;;;;-128.00;-1.00;-1.00;18473;298;7506265;-35
2023/08/20 10:13:21;;;;;;;5.20;4.80;;;;;;;-128.00;-1.00;-1.00;18442;298;7504247;-35
2023/08/20 10:15:47;;;;;;;4.80;4.30;;;;;;;-128.00;-1.00;-1.00;18459;298;7504969;-35
2023/08/20 10:18:13;;;;;;;29.70;15.60;;;;;;;-128.00;-1.00;-1.00;18841;298;7505244;-32
2023/08/20 10:20:40;;;;;;;20.70;8.50;;;;;;;-128.00;-1.00;-1.00;18472;350;7506062;-35
2023/08/20 10:23:06;;;;;;;4.50;4.10;;;;;;;-128.00;-1.00;-1.00;18461;343;7505298;-35
2023/08/20 10:25:32;;;;;;;4.70;4.30;;;;;;;-128.00;-1.00;-1.00;18475;298;7505949;-34
2023/08/20 10:28:24;;;;;;;5.50;5.00;;;;;;;-128.00;-1.00;-1.00;18457;299;7504400;-36
2023/08/20 10:31:03;;;;;;;4.10;3.70;;;;;;;-128.00;-1.00;-1.00;18455;298;7506062;-36
2023/08/20 10:33:29;;;;;;;4.30;4.00;;;;;;;-128.00;-1.00;-1.00;18483;299;7504716;-32
2023/08/20 10:35:55;;;;;;;5.20;4.80;;;;;;;-128.00;-1.00;-1.00;18864;322;7504584;-33
2023/08/20 10:38:22;;;;;;;5.60;4.40;;;;;;;-128.00;-1.00;-1.00;18884;298;7505858;-33
2023/08/20 10:40:58;;;;;;;4.90;4.00;;;;;;;-128.00;-1.00;-1.00;18463;350;7505917;-33
2023/08/20 10:43:29;;;;;;;4.20;3.90;;;;;;;-128.00;-1.00;-1.00;18435;298;7505340;-36
2023/08/20 10:46:15;;;;;;;4.40;4.20;;;;;;;-128.00;-1.00;-1.00;18476;350;7506374;-36
2023/08/20 10:48:41;;;;;;;3.60;2.70;;;;;;;-128.00;-1.00;-1.00;18468;298;7505362;-36
2023/08/20 10:51:12;;;;;;;5.70;4.90;;;;;;;-128.00;-1.00;-1.00;18458;298;7504486;-32
2023/08/20 10:53:38;;;;;;;4.40;4.00;;;;;;;-128.00;-1.00;-1.00;18451;343;7504666;-32
2023/08/20 10:56:11;;;;;;;4.20;3.90;;;;;;;-128.00;-1.00;-1.00;18456;298;7504964;-32
2023/08/20 10:58:41;;;;;;;7.70;6.00;;;;;;;-128.00;-1.00;-1.00;18441;299;7504290;-33
2023/08/20 11:01:18;;;;;;;3.90;3.60;;;;;;;-128.00;-1.00;-1.00;18458;343;7504718;-36
2023/08/20 11:03:44;;;;;;;4.70;4.30;;;;;;;-128.00;-1.00;-1.00;18431;315;7504974;-36
2023/08/20 11:06:11;;;;;;;4.20;3.50;;;;;;;-128.00;-1.00;-1.00;18441;299;7504452;-36
2023/08/20 11:08:38;;;;;;;3.40;3.10;;;;;;;-128.00;-1.00;-1.00;18434;288;7506176;-33
2023/08/20 11:11:03;;;;;;;4.50;4.10;;;;;;;-128.00;-1.00;-1.00;18468;298;7504793;-33
2023/08/20 11:13:34;;;;;;;5.50;4.00;;;;;;;-128.00;-1.00;-1.00;18445;299;7506222;-36
2023/08/20 11:16:01;;;;;;;3.80;3.50;;;;;;;-128.00;-1.00;-1.00;18451;288;7506413;-33
2023/08/20 11:18:28;;;;;;;5.20;4.40;;;;;;;-128.00;-1.00;-1.00;18478;298;7504979;-36
2023/08/20 11:20:54;;;;;;;3.90;3.60;;;;;;;-128.00;-1.00;-1.00;18466;298;7506237;-33
2023/08/20 11:23:21;;;;;;;4.00;3.60;;;;;;;-128.00;-1.00;-1.00;18424;298;7506329;-33
2023/08/20 11:25:47;;;;;;;11.50;3.90;;;;;;;-128.00;-1.00;-1.00;18461;298;7504820;-33
2023/08/20 11:28:13;;;;;;;3.20;2.60;;;;;;;-128.00;-1.00;-1.00;18453;299;7504328;-36
2023/08/20 11:30:39;;;;;;;4.00;3.50;;;;;;;-128.00;-1.00;-1.00;18458;326;7504169;-33
2023/08/20 11:33:05;;;;;;;4.00;3.60;;;;;;;-128.00;-1.00;-1.00;18869;299;7504201;-32
2023/08/20 11:35:32;;;;;;;5.00;3.50;;;;;;;-128.00;-1.00;-1.00;18856;350;7505140;-33
2023/08/20 11:37:58;;;;;;;4.80;3.40;;;;;;;-128.00;-1.00;-1.00;18479;322;7505510;-32
2023/08/20 11:40:24;;;;;;;3.30;3.00;;;;;;;-128.00;-1.00;-1.00;18456;298;7504930;-36
2023/08/20 11:42:50;;;;;;;2.70;2.50;;;;;;;-128.00;-1.00;-1.00;18443;350;7505586;-36
2023/08/20 11:45:16;;;;;;;3.00;2.80;;;;;;;-128.00;-1.00;-1.00;18433;298;7504571;-36
2023/08/20 11:47:41;;;;;;;3.70;3.40;;;;;;;-128.00;-1.00;-1.00;18450;298;7505400;-32
2023/08/20 11:50:08;;;;;;;3.40;3.20;;;;;;;-128.00;-1.00;-1.00;18456;298;7506947;-36
2023/08/20 11:52:35;;;;;;;16.20;3.70;;;;;;;-128.00;-1.00;-1.00;18446;287;7504429;-33
2023/08/20 11:55:01;;;;;;;4.00;3.70;;;;;;;-128.00;-1.00;-1.00;18451;314;7506102;-32
2023/08/20 11:57:29;;;;;;;3.40;3.10;;;;;;;-128.00;-1.00;-1.00;18457;298;7504800;-30
2023/08/20 11:59:55;;;;;;;3.40;3.20;;;;;;;-128.00;-1.00;-1.00;18452;298;7505531;-32
2023/08/20 12:02:27;;;;;;;3.50;3.10;;;;;;;-128.00;-1.00;-1.00;18451;298;7504654;-36